sensor_id;sensor_type;location;lat;lon;timestamp;temperature;humidity
22418;DHT22;11376;50.932;4.442;2023-03-19T00:00:11;11.60;99.90
22418;DHT22;11376;50.932;4.442;2023-03-19T00:02:37;11.60;99.90
22418;DHT22;11376;50.932;4.442;2023-03-19T00:05:04;11.60;99.90
22418;DHT22;11376;50.932;4.442;2023-03-19T00:07:30;11.50;99.90
22418;DHT22;11376;50.932;4.442;2023-03-19T00:09:55;11.50;99.90
22418;DHT22;11376;50.932;4.442;2023-03-19T00:12:21;11.40;99.90
22418;DHT22;11376;50.932;4.442;2023-03-19T00:14:47;11.40;99.90
22418;DHT22;11376;50.932;4.442;2023-03-19T00:17:13;11.30;99.90
22418;DHT22;11376;50.932;4.442;2023-03-19T00:19:38;11.30;99.90
22418;DHT22;11376;50.932;4.442;2023-03-19T00:22:04;11.30;99.90
22418;DHT22;11376;50.932;4.442;2023-03-19T00:24:30;11.30;99.90
22418;DHT22;11376;50.932;4.442;2023-03-19T00:26:55;11.30;99.90
22418;DHT22;11376;50.932;4.442;2023-03-19T00:29:21;11.30;99.90
22418;DHT22;11376;50.932;4.442;2023-03-19T00:31:48;11.30;99.90
22418;DHT22;11376;50.932;4.442;2023-03-19T00:34:13;11.30;99.90
22418;DHT22;11376;50.932;4.442;2023-03-19T00:36:42;11.30;99.90
22418;DHT22;11376;50.932;4.442;2023-03-19T00:39:08;11.20;99.90
22418;DHT22;11376;50.932;4.442;2023-03-19T00:41:34;11.20;99.90
22418;DHT22;11376;50.932;4.442;2023-03-19T00:43:59;11.20;99.90
22418;DHT22;11376;50.932;4.442;2023-03-19T00:46:25;11.20;99.90
22418;DHT22;11376;50.932;4.442;2023-03-19T00:48:51;11.20;99.90
22418;DHT22;11376;50.932;4.442;2023-03-19T00:51:20;11.20;99.90
22418;DHT22;11376;50.932;4.442;2023-03-19T00:53:46;11.20;99.90
22418;DHT22;11376;50.932;4.442;2023-03-19T00:56:13;11.20;99.90
22418;DHT22;11376;50.932;4.442;2023-03-19T00:58:39;11.30;99.90
22418;DHT22;11376;50.932;4.442;2023-03-19T01:01:09;11.30;99.90
22418;DHT22;11376;50.932;4.442;2023-03-19T01:03:37;11.30;99.90
22418;DHT22;11376;50.932;4.442;2023-03-19T01:06:03;11.30;99.90
22418;DHT22;11376;50.932;4.442;2023-03-19T01:08:29;11.30;99.90
22418;DHT22;11376;50.932;4.442;2023-03-19T01:10:55;11.30;99.90
22418;DHT22;11376;50.932;4.442;2023-03-19T01:13:21;11.30;99.90
22418;DHT22;11376;50.932;4.442;2023-03-19T01:15:50;11.30;99.90
22418;DHT22;11376;50.932;4.442;2023-03-19T01:18:16;11.30;99.90
22418;DHT22;11376;50.932;4.442;2023-03-19T01:20:42;11.30;99.90
22418;DHT22;11376;50.932;4.442;2023-03-19T01:23:07;11.30;99.90
22418;DHT22;11376;50.932;4.442;2023-03-19T01:25:33;11.30;99.90
22418;DHT22;11376;50.932;4.442;2023-03-19T01:27:59;11.30;99.90
22418;DHT22;11376;50.932;4.442;2023-03-19T01:30:25;11.30;99.90
22418;DHT22;11376;50.932;4.442;2023-03-19T01:32:51;11.40;99.90
22418;DHT22;11376;50.932;4.442;2023-03-19T01:35:16;11.40;99.90
22418;DHT22;11376;50.932;4.442;2023-03-19T01:37:42;11.40;99.90
22418;DHT22;11376;50.932;4.442;2023-03-19T01:40:11;11.40;99.90
22418;DHT22;11376;50.932;4.442;2023-03-19T01:43:14;11.40;99.90
22418;DHT22;11376;50.932;4.442;2023-03-19T01:45:41;11.40;99.90
22418;DHT22;11376;50.932;4.442;2023-03-19T01:48:19;11.40;99.90
22418;DHT22;11376;50.932;4.442;2023-03-19T01:50:47;11.50;99.90
22418;DHT22;11376;50.932;4.442;2023-03-19T01:53:16;11.50;99.90
22418;DHT22;11376;50.932;4.442;2023-03-19T01:55:43;11.50;99.90
22418;DHT22;11376;50.932;4.442;2023-03-19T01:58:09;11.50;99.90
22418;DHT22;11376;50.932;4.442;2023-03-19T02:00:36;11.50;99.90
22418;DHT22;11376;50.932;4.442;2023-03-19T02:03:03;11.50;99.90
22418;DHT22;11376;50.932;4.442;2023-03-19T02:05:29;11.50;99.90
22418;DHT22;11376;50.932;4.442;2023-03-19T02:07:58;11.50;99.90
22418;DHT22;11376;50.932;4.442;2023-03-19T02:10:25;11.50;99.90
22418;DHT22;11376;50.932;4.442;2023-03-19T02:12:51;11.50;99.90
22418;DHT22;11376;50.932;4.442;2023-03-19T02:15:17;11.50;99.90
22418;DHT22;11376;50.932;4.442;2023-03-19T02:17:43;11.50;99.90
22418;DHT22;11376;50.932;4.442;2023-03-19T02:20:28;11.50;99.90
22418;DHT22;11376;50.932;4.442;2023-03-19T02:25:32;11.50;99.90
22418;DHT22;11376;50.932;4.442;2023-03-19T02:28:00;11.50;99.90
22418;DHT22;11376;50.932;4.442;2023-03-19T02:30:29;11.50;99.90
22418;DHT22;11376;50.932;4.442;2023-03-19T02:32:55;11.50;99.90
22418;DHT22;11376;50.932;4.442;2023-03-19T02:35:21;11.40;99.90
22418;DHT22;11376;50.932;4.442;2023-03-19T02:37:46;11.40;99.90
22418;DHT22;11376;50.932;4.442;2023-03-19T02:40:19;11.40;99.90
22418;DHT22;11376;50.932;4.442;2023-03-19T02:42:45;11.40;99.90
22418;DHT22;11376;50.932;4.442;2023-03-19T02:45:11;11.40;99.90
22418;DHT22;11376;50.932;4.442;2023-03-19T02:47:37;11.30;99.90
22418;DHT22;11376;50.932;4.442;2023-03-19T02:50:03;11.30;99.90
22418;DHT22;11376;50.932;4.442;2023-03-19T02:52:29;11.30;99.90
22418;DHT22;11376;50.932;4.442;2023-03-19T02:54:54;11.30;99.90
22418;DHT22;11376;50.932;4.442;2023-03-19T02:57:20;11.30;99.90
22418;DHT22;11376;50.932;4.442;2023-03-19T02:59:46;11.30;99.90
22418;DHT22;11376;50.932;4.442;2023-03-19T03:02:11;11.20;99.90
22418;DHT22;11376;50.932;4.442;2023-03-19T03:04:37;11.20;99.90
22418;DHT22;11376;50.932;4.442;2023-03-19T03:07:04;11.20;99.90
22418;DHT22;11376;50.932;4.442;2023-03-19T03:09:30;11.20;99.90
22418;DHT22;11376;50.932;4.442;2023-03-19T03:11:56;11.10;99.90
22418;DHT22;11376;50.932;4.442;2023-03-19T03:14:21;11.10;99.90
22418;DHT22;11376;50.932;4.442;2023-03-19T03:16:47;11.10;99.90
22418;DHT22;11376;50.932;4.442;2023-03-19T03:19:13;11.00;99.90
22418;DHT22;11376;50.932;4.442;2023-03-19T03:21:39;10.90;99.90
22418;DHT22;11376;50.932;4.442;2023-03-19T03:24:05;10.90;99.90
22418;DHT22;11376;50.932;4.442;2023-03-19T03:26:31;10.90;99.90
22418;DHT22;11376;50.932;4.442;2023-03-19T03:28:59;10.80;99.90
22418;DHT22;11376;50.932;4.442;2023-03-19T03:31:24;10.80;99.90
22418;DHT22;11376;50.932;4.442;2023-03-19T03:33:51;10.80;99.90
22418;DHT22;11376;50.932;4.442;2023-03-19T03:36:16;10.80;99.90
22418;DHT22;11376;50.932;4.442;2023-03-19T03:38:42;10.80;99.90
22418;DHT22;11376;50.932;4.442;2023-03-19T03:41:08;10.70;99.90
22418;DHT22;11376;50.932;4.442;2023-03-19T03:43:34;10.70;99.90
22418;DHT22;11376;50.932;4.442;2023-03-19T03:46:00;10.60;99.90
22418;DHT22;11376;50.932;4.442;2023-03-19T03:48:25;10.70;99.90
22418;DHT22;11376;50.932;4.442;2023-03-19T03:50:51;10.60;99.90
22418;DHT22;11376;50.932;4.442;2023-03-19T03:53:16;10.60;99.90
22418;DHT22;11376;50.932;4.442;2023-03-19T03:55:42;10.60;99.90
22418;DHT22;11376;50.932;4.442;2023-03-19T03:58:07;10.50;99.90
22418;DHT22;11376;50.932;4.442;2023-03-19T04:00:33;10.50;99.90
22418;DHT22;11376;50.932;4.442;2023-03-19T04:02:59;10.50;99.90
22418;DHT22;11376;50.932;4.442;2023-03-19T04:05:24;10.40;99.90
22418;DHT22;11376;50.932;4.442;2023-03-19T04:07:50;10.40;99.90
22418;DHT22;11376;50.932;4.442;2023-03-19T04:10:16;10.40;99.90
22418;DHT22;11376;50.932;4.442;2023-03-19T04:12:42;10.30;99.90
22418;DHT22;11376;50.932;4.442;2023-03-19T04:15:08;10.30;99.90
22418;DHT22;11376;50.932;4.442;2023-03-19T04:17:35;10.30;99.90
22418;DHT22;11376;50.932;4.442;2023-03-19T04:20:02;10.30;99.90
22418;DHT22;11376;50.932;4.442;2023-03-19T04:22:29;10.20;99.90
22418;DHT22;11376;50.932;4.442;2023-03-19T04:24:56;10.20;99.90
22418;DHT22;11376;50.932;4.442;2023-03-19T04:27:21;10.20;99.90
22418;DHT22;11376;50.932;4.442;2023-03-19T04:29:47;10.20;99.90
22418;DHT22;11376;50.932;4.442;2023-03-19T04:32:13;10.20;99.90
22418;DHT22;11376;50.932;4.442;2023-03-19T04:34:38;10.10;99.90
22418;DHT22;11376;50.932;4.442;2023-03-19T04:37:04;10.10;99.90
22418;DHT22;11376;50.932;4.442;2023-03-19T04:39:30;10.10;99.90
22418;DHT22;11376;50.932;4.442;2023-03-19T04:41:56;10.00;99.90
22418;DHT22;11376;50.932;4.442;2023-03-19T04:44:22;10.00;99.90
22418;DHT22;11376;50.932;4.442;2023-03-19T04:46:48;10.00;99.90
22418;DHT22;11376;50.932;4.442;2023-03-19T04:49:14;10.00;99.90
22418;DHT22;11376;50.932;4.442;2023-03-19T04:51:40;10.00;99.90
22418;DHT22;11376;50.932;4.442;2023-03-19T04:54:06;10.00;99.90
22418;DHT22;11376;50.932;4.442;2023-03-19T04:56:32;9.90;99.90
22418;DHT22;11376;50.932;4.442;2023-03-19T04:58:58;9.90;99.90
22418;DHT22;11376;50.932;4.442;2023-03-19T05:01:23;9.80;99.90
22418;DHT22;11376;50.932;4.442;2023-03-19T05:03:49;9.80;99.90
22418;DHT22;11376;50.932;4.442;2023-03-19T05:06:15;9.80;99.90
22418;DHT22;11376;50.932;4.442;2023-03-19T05:08:41;9.70;99.90
22418;DHT22;11376;50.932;4.442;2023-03-19T05:11:07;9.70;99.90
22418;DHT22;11376;50.932;4.442;2023-03-19T05:13:33;9.70;99.90
22418;DHT22;11376;50.932;4.442;2023-03-19T05:15:58;9.70;99.90
22418;DHT22;11376;50.932;4.442;2023-03-19T05:18:24;9.70;99.90
22418;DHT22;11376;50.932;4.442;2023-03-19T05:20:50;9.60;99.90
22418;DHT22;11376;50.932;4.442;2023-03-19T05:23:16;9.60;99.90
22418;DHT22;11376;50.932;4.442;2023-03-19T05:25:42;9.70;99.90
22418;DHT22;11376;50.932;4.442;2023-03-19T05:28:08;9.60;99.90
22418;DHT22;11376;50.932;4.442;2023-03-19T05:30:34;9.60;99.90
22418;DHT22;11376;50.932;4.442;2023-03-19T05:33:00;9.60;99.90
22418;DHT22;11376;50.932;4.442;2023-03-19T05:35:27;9.50;99.90
22418;DHT22;11376;50.932;4.442;2023-03-19T05:37:54;9.50;99.90
22418;DHT22;11376;50.932;4.442;2023-03-19T05:40:20;9.50;99.90
22418;DHT22;11376;50.932;4.442;2023-03-19T05:42:45;9.50;99.90
22418;DHT22;11376;50.932;4.442;2023-03-19T05:45:11;9.50;99.90
22418;DHT22;11376;50.932;4.442;2023-03-19T05:47:36;9.40;99.90
22418;DHT22;11376;50.932;4.442;2023-03-19T05:50:04;9.40;99.90
22418;DHT22;11376;50.932;4.442;2023-03-19T05:52:30;9.40;99.90
22418;DHT22;11376;50.932;4.442;2023-03-19T05:54:56;9.40;99.90
22418;DHT22;11376;50.932;4.442;2023-03-19T05:57:22;9.40;99.90
22418;DHT22;11376;50.932;4.442;2023-03-19T05:59:47;9.40;99.90
22418;DHT22;11376;50.932;4.442;2023-03-19T06:02:13;9.40;99.90
22418;DHT22;11376;50.932;4.442;2023-03-19T06:04:39;9.40;99.90
22418;DHT22;11376;50.932;4.442;2023-03-19T06:07:05;9.40;99.90
22418;DHT22;11376;50.932;4.442;2023-03-19T06:09:31;9.40;99.90
22418;DHT22;11376;50.932;4.442;2023-03-19T06:11:56;9.40;99.90
22418;DHT22;11376;50.932;4.442;2023-03-19T06:14:22;9.40;99.90
22418;DHT22;11376;50.932;4.442;2023-03-19T06:16:48;9.30;99.90
22418;DHT22;11376;50.932;4.442;2023-03-19T06:19:14;9.40;99.90
22418;DHT22;11376;50.932;4.442;2023-03-19T06:21:39;9.30;99.90
22418;DHT22;11376;50.932;4.442;2023-03-19T06:24:05;9.30;99.90
22418;DHT22;11376;50.932;4.442;2023-03-19T06:26:31;9.30;99.90
22418;DHT22;11376;50.932;4.442;2023-03-19T06:28:57;9.30;99.90
22418;DHT22;11376;50.932;4.442;2023-03-19T06:31:22;9.30;99.90
22418;DHT22;11376;50.932;4.442;2023-03-19T06:33:48;9.30;99.90
22418;DHT22;11376;50.932;4.442;2023-03-19T06:36:15;9.30;99.90
22418;DHT22;11376;50.932;4.442;2023-03-19T06:38:40;9.30;99.90
22418;DHT22;11376;50.932;4.442;2023-03-19T06:41:06;9.30;99.90
22418;DHT22;11376;50.932;4.442;2023-03-19T06:43:32;9.30;99.90
22418;DHT22;11376;50.932;4.442;2023-03-19T06:46:02;9.30;99.90
22418;DHT22;11376;50.932;4.442;2023-03-19T06:48:27;9.30;99.90
22418;DHT22;11376;50.932;4.442;2023-03-19T06:50:53;9.30;99.90
22418;DHT22;11376;50.932;4.442;2023-03-19T06:53:18;9.30;99.90
22418;DHT22;11376;50.932;4.442;2023-03-19T06:55:47;9.30;99.90
22418;DHT22;11376;50.932;4.442;2023-03-19T06:58:13;9.30;99.90
22418;DHT22;11376;50.932;4.442;2023-03-19T07:00:38;9.30;99.90
22418;DHT22;11376;50.932;4.442;2023-03-19T07:03:04;9.30;99.90
22418;DHT22;11376;50.932;4.442;2023-03-19T07:05:29;9.30;99.90
22418;DHT22;11376;50.932;4.442;2023-03-19T07:07:55;9.40;99.90
22418;DHT22;11376;50.932;4.442;2023-03-19T07:10:21;9.40;99.90
22418;DHT22;11376;50.932;4.442;2023-03-19T07:12:46;9.40;99.90
22418;DHT22;11376;50.932;4.442;2023-03-19T07:15:13;9.50;99.90
22418;DHT22;11376;50.932;4.442;2023-03-19T07:17:38;9.50;99.90
22418;DHT22;11376;50.932;4.442;2023-03-19T07:20:04;9.60;99.90
22418;DHT22;11376;50.932;4.442;2023-03-19T07:22:30;9.70;99.90
22418;DHT22;11376;50.932;4.442;2023-03-19T07:24:56;9.80;99.90
22418;DHT22;11376;50.932;4.442;2023-03-19T07:27:22;9.80;99.90
22418;DHT22;11376;50.932;4.442;2023-03-19T07:29:47;9.90;99.90
22418;DHT22;11376;50.932;4.442;2023-03-19T07:32:13;10.00;99.90
22418;DHT22;11376;50.932;4.442;2023-03-19T07:34:39;10.10;99.90
22418;DHT22;11376;50.932;4.442;2023-03-19T07:37:05;10.10;99.90
22418;DHT22;11376;50.932;4.442;2023-03-19T07:39:31;10.20;99.90
22418;DHT22;11376;50.932;4.442;2023-03-19T07:41:56;10.20;99.90
22418;DHT22;11376;50.932;4.442;2023-03-19T07:44:22;10.30;99.90
22418;DHT22;11376;50.932;4.442;2023-03-19T07:46:48;10.30;99.90
22418;DHT22;11376;50.932;4.442;2023-03-19T07:49:13;10.40;99.90
22418;DHT22;11376;50.932;4.442;2023-03-19T07:51:39;10.40;99.90
22418;DHT22;11376;50.932;4.442;2023-03-19T07:54:30;10.50;99.90
22418;DHT22;11376;50.932;4.442;2023-03-19T07:56:56;10.50;99.90
22418;DHT22;11376;50.932;4.442;2023-03-19T07:59:21;10.50;99.90
22418;DHT22;11376;50.932;4.442;2023-03-19T08:01:47;10.50;99.90
22418;DHT22;11376;50.932;4.442;2023-03-19T08:04:12;10.60;99.90
22418;DHT22;11376;50.932;4.442;2023-03-19T08:06:38;10.60;99.90
22418;DHT22;11376;50.932;4.442;2023-03-19T08:09:04;10.70;99.90
22418;DHT22;11376;50.932;4.442;2023-03-19T08:11:30;10.80;99.90
22418;DHT22;11376;50.932;4.442;2023-03-19T08:13:56;10.80;99.90
22418;DHT22;11376;50.932;4.442;2023-03-19T08:16:22;10.80;99.90
22418;DHT22;11376;50.932;4.442;2023-03-19T08:18:48;11.00;99.90
22418;DHT22;11376;50.932;4.442;2023-03-19T08:21:14;11.00;99.90
22418;DHT22;11376;50.932;4.442;2023-03-19T08:23:40;11.00;99.90
22418;DHT22;11376;50.932;4.442;2023-03-19T08:26:06;11.10;99.90
22418;DHT22;11376;50.932;4.442;2023-03-19T08:28:32;11.20;99.90
22418;DHT22;11376;50.932;4.442;2023-03-19T08:31:05;11.30;99.90
22418;DHT22;11376;50.932;4.442;2023-03-19T08:33:31;11.40;99.90
22418;DHT22;11376;50.932;4.442;2023-03-19T08:36:11;11.40;99.90
22418;DHT22;11376;50.932;4.442;2023-03-19T08:38:38;11.50;99.90
22418;DHT22;11376;50.932;4.442;2023-03-19T08:41:04;11.50;99.90
22418;DHT22;11376;50.932;4.442;2023-03-19T08:43:31;11.60;99.90
22418;DHT22;11376;50.932;4.442;2023-03-19T08:45:57;11.80;99.90
22418;DHT22;11376;50.932;4.442;2023-03-19T08:48:22;11.90;99.90
22418;DHT22;11376;50.932;4.442;2023-03-19T08:50:58;11.90;99.90
22418;DHT22;11376;50.932;4.442;2023-03-19T08:53:25;12.00;99.90
22418;DHT22;11376;50.932;4.442;2023-03-19T08:55:52;12.00;99.90
22418;DHT22;11376;50.932;4.442;2023-03-19T08:58:18;11.90;99.90
22418;DHT22;11376;50.932;4.442;2023-03-19T09:00:43;12.10;99.90
22418;DHT22;11376;50.932;4.442;2023-03-19T09:03:09;12.40;99.90
22418;DHT22;11376;50.932;4.442;2023-03-19T09:05:35;12.70;99.90
22418;DHT22;11376;50.932;4.442;2023-03-19T09:08:00;13.00;99.90
22418;DHT22;11376;50.932;4.442;2023-03-19T09:10:26;13.20;99.90
22418;DHT22;11376;50.932;4.442;2023-03-19T09:12:52;13.30;99.90
22418;DHT22;11376;50.932;4.442;2023-03-19T09:15:17;13.60;99.90
22418;DHT22;11376;50.932;4.442;2023-03-19T09:17:43;13.50;99.90
22418;DHT22;11376;50.932;4.442;2023-03-19T09:20:09;13.30;99.90
22418;DHT22;11376;50.932;4.442;2023-03-19T09:22:35;13.30;99.90
22418;DHT22;11376;50.932;4.442;2023-03-19T09:25:01;13.80;99.90
22418;DHT22;11376;50.932;4.442;2023-03-19T09:27:26;13.90;99.90
22418;DHT22;11376;50.932;4.442;2023-03-19T09:29:53;13.70;99.90
22418;DHT22;11376;50.932;4.442;2023-03-19T09:32:18;13.60;99.90
22418;DHT22;11376;50.932;4.442;2023-03-19T09:34:44;13.50;99.90
22418;DHT22;11376;50.932;4.442;2023-03-19T09:37:11;13.40;99.90
22418;DHT22;11376;50.932;4.442;2023-03-19T09:39:36;13.40;99.90
22418;DHT22;11376;50.932;4.442;2023-03-19T09:42:12;13.50;99.90
22418;DHT22;11376;50.932;4.442;2023-03-19T09:44:43;13.30;99.90
22418;DHT22;11376;50.932;4.442;2023-03-19T09:49:53;13.30;99.90
22418;DHT22;11376;50.932;4.442;2023-03-19T09:52:45;13.30;99.90
22418;DHT22;11376;50.932;4.442;2023-03-19T09:55:18;13.30;99.90
22418;DHT22;11376;50.932;4.442;2023-03-19T09:57:48;13.30;99.90
22418;DHT22;11376;50.932;4.442;2023-03-19T10:02:43;13.20;99.90
22418;DHT22;11376;50.932;4.442;2023-03-19T10:16:24;14.00;99.90
22418;DHT22;11376;50.932;4.442;2023-03-19T10:18:53;13.60;99.90
22418;DHT22;11376;50.932;4.442;2023-03-19T10:24:38;13.60;99.90
22418;DHT22;11376;50.932;4.442;2023-03-19T10:27:10;13.70;99.90
22418;DHT22;11376;50.932;4.442;2023-03-19T10:29:37;14.00;99.90
22418;DHT22;11376;50.932;4.442;2023-03-19T10:34:41;13.90;99.90
22418;DHT22;11376;50.932;4.442;2023-03-19T10:37:16;14.20;99.90
22418;DHT22;11376;50.932;4.442;2023-03-19T10:39:45;13.90;99.90
22418;DHT22;11376;50.932;4.442;2023-03-19T10:47:44;14.40;99.90
22418;DHT22;11376;50.932;4.442;2023-03-19T10:50:19;14.80;99.90
22418;DHT22;11376;50.932;4.442;2023-03-19T10:52:50;15.60;99.90
22418;DHT22;11376;50.932;4.442;2023-03-19T10:55:24;15.20;99.90
22418;DHT22;11376;50.932;4.442;2023-03-19T10:57:56;14.90;99.90
22418;DHT22;11376;50.932;4.442;2023-03-19T11:00:28;15.40;99.90
22418;DHT22;11376;50.932;4.442;2023-03-19T11:02:57;15.50;99.90
22418;DHT22;11376;50.932;4.442;2023-03-19T11:05:28;15.50;99.90
22418;DHT22;11376;50.932;4.442;2023-03-19T11:08:05;16.00;99.90
22418;DHT22;11376;50.932;4.442;2023-03-19T11:10:35;15.80;99.90
22418;DHT22;11376;50.932;4.442;2023-03-19T11:13:11;15.30;99.90
22418;DHT22;11376;50.932;4.442;2023-03-19T11:15:40;15.40;99.90
22418;DHT22;11376;50.932;4.442;2023-03-19T11:18:14;15.00;99.90
22418;DHT22;11376;50.932;4.442;2023-03-19T11:20:41;14.80;99.90
22418;DHT22;11376;50.932;4.442;2023-03-19T11:23:16;14.50;99.90
22418;DHT22;11376;50.932;4.442;2023-03-19T11:25:51;14.20;99.90
22418;DHT22;11376;50.932;4.442;2023-03-19T11:28:18;13.70;99.90
22418;DHT22;11376;50.932;4.442;2023-03-19T11:36:30;12.60;99.90
22418;DHT22;11376;50.932;4.442;2023-03-19T11:47:29;12.60;99.90
22418;DHT22;11376;50.932;4.442;2023-03-19T11:58:11;13.20;99.90
22418;DHT22;11376;50.932;4.442;2023-03-19T12:00:47;13.50;99.90
22418;DHT22;11376;50.932;4.442;2023-03-19T12:06:23;13.90;99.90
22418;DHT22;11376;50.932;4.442;2023-03-19T12:09:27;14.10;99.90
22418;DHT22;11376;50.932;4.442;2023-03-19T12:12:20;14.70;99.90
22418;DHT22;11376;50.932;4.442;2023-03-19T12:17:54;14.10;99.90
22418;DHT22;11376;50.932;4.442;2023-03-19T12:20:39;13.60;99.90
22418;DHT22;11376;50.932;4.442;2023-03-19T12:23:35;13.70;99.90
22418;DHT22;11376;50.932;4.442;2023-03-19T12:29:13;14.20;99.90
22418;DHT22;11376;50.932;4.442;2023-03-19T12:31:59;14.40;99.90
22418;DHT22;11376;50.932;4.442;2023-03-19T12:34:41;14.50;99.90
22418;DHT22;11376;50.932;4.442;2023-03-19T12:42:36;15.30;99.90
22418;DHT22;11376;50.932;4.442;2023-03-19T12:45:02;16.60;99.90
22418;DHT22;11376;50.932;4.442;2023-03-19T12:47:34;16.30;99.90
22418;DHT22;11376;50.932;4.442;2023-03-19T12:50:10;16.10;99.90
22418;DHT22;11376;50.932;4.442;2023-03-19T12:52:41;16.50;99.90
22418;DHT22;11376;50.932;4.442;2023-03-19T12:55:22;16.60;99.90
22418;DHT22;11376;50.932;4.442;2023-03-19T12:57:59;16.90;99.90
22418;DHT22;11376;50.932;4.442;2023-03-19T13:03:44;18.20;99.90
22418;DHT22;11376;50.932;4.442;2023-03-19T13:06:36;17.70;99.90
22418;DHT22;11376;50.932;4.442;2023-03-19T13:09:57;17.10;99.90
22418;DHT22;11376;50.932;4.442;2023-03-19T13:12:12;17.10;99.90
22418;DHT22;11376;50.932;4.442;2023-03-19T13:15:15;16.70;99.90
22418;DHT22;11376;50.932;4.442;2023-03-19T13:23:29;19.80;99.90
22418;DHT22;11376;50.932;4.442;2023-03-19T13:25:57;19.90;99.90
22418;DHT22;11376;50.932;4.442;2023-03-19T13:28:35;17.80;99.90
22418;DHT22;11376;50.932;4.442;2023-03-19T13:31:04;17.00;99.90
22418;DHT22;11376;50.932;4.442;2023-03-19T13:33:33;15.50;99.90
22418;DHT22;11376;50.932;4.442;2023-03-19T13:36:04;14.70;99.90
22418;DHT22;11376;50.932;4.442;2023-03-19T13:38:44;14.00;99.90
22418;DHT22;11376;50.932;4.442;2023-03-19T13:44:17;13.80;99.90
22418;DHT22;11376;50.932;4.442;2023-03-19T13:46:44;13.70;99.90
22418;DHT22;11376;50.932;4.442;2023-03-19T13:49:30;14.00;99.90
22418;DHT22;11376;50.932;4.442;2023-03-19T13:54:44;13.60;99.90
22418;DHT22;11376;50.932;4.442;2023-03-19T13:59:49;13.80;99.90
22418;DHT22;11376;50.932;4.442;2023-03-19T14:04:51;13.90;99.90
22418;DHT22;11376;50.932;4.442;2023-03-19T14:07:23;14.10;99.90
22418;DHT22;11376;50.932;4.442;2023-03-19T14:10:25;13.90;99.90
22418;DHT22;11376;50.932;4.442;2023-03-19T14:12:50;13.60;99.90
22418;DHT22;11376;50.932;4.442;2023-03-19T14:15:21;14.30;99.90
22418;DHT22;11376;50.932;4.442;2023-03-19T14:17:54;15.10;99.90
22418;DHT22;11376;50.932;4.442;2023-03-19T14:20:24;15.30;99.90
22418;DHT22;11376;50.932;4.442;2023-03-19T14:26:13;14.40;99.90
22418;DHT22;11376;50.932;4.442;2023-03-19T14:29:01;14.10;99.90
22418;DHT22;11376;50.932;4.442;2023-03-19T14:31:50;13.50;99.90
22418;DHT22;11376;50.932;4.442;2023-03-19T14:34:26;13.70;99.90
22418;DHT22;11376;50.932;4.442;2023-03-19T14:40:09;14.00;99.90
22418;DHT22;11376;50.932;4.442;2023-03-19T14:45:40;13.50;99.90
22418;DHT22;11376;50.932;4.442;2023-03-19T14:53:40;13.10;99.90
22418;DHT22;11376;50.932;4.442;2023-03-19T14:56:34;12.80;99.90
22418;DHT22;11376;50.932;4.442;2023-03-19T14:59:00;12.60;99.90
22418;DHT22;11376;50.932;4.442;2023-03-19T15:01:30;12.60;99.90
22418;DHT22;11376;50.932;4.442;2023-03-19T15:04:03;12.80;99.90
22418;DHT22;11376;50.932;4.442;2023-03-19T15:06:34;12.60;99.90
22418;DHT22;11376;50.932;4.442;2023-03-19T15:09:00;12.40;99.90
22418;DHT22;11376;50.932;4.442;2023-03-19T15:14:38;12.50;99.90
22418;DHT22;11376;50.932;4.442;2023-03-19T15:17:26;12.50;99.90
22418;DHT22;11376;50.932;4.442;2023-03-19T15:19:54;12.50;99.90
22418;DHT22;11376;50.932;4.442;2023-03-19T15:24:50;12.50;99.90
22418;DHT22;11376;50.932;4.442;2023-03-19T15:27:24;12.80;99.90
22418;DHT22;11376;50.932;4.442;2023-03-19T15:29:51;12.50;99.90
22418;DHT22;11376;50.932;4.442;2023-03-19T15:32:34;12.50;99.90
22418;DHT22;11376;50.932;4.442;2023-03-19T15:35:01;12.40;99.90
22418;DHT22;11376;50.932;4.442;2023-03-19T15:37:29;12.20;99.90
22418;DHT22;11376;50.932;4.442;2023-03-19T15:39:56;12.20;99.90
22418;DHT22;11376;50.932;4.442;2023-03-19T15:42:25;12.00;99.90
22418;DHT22;11376;50.932;4.442;2023-03-19T15:45:09;11.80;99.90
22418;DHT22;11376;50.932;4.442;2023-03-19T15:47:44;11.70;99.90
22418;DHT22;11376;50.932;4.442;2023-03-19T15:50:17;11.60;99.90
22418;DHT22;11376;50.932;4.442;2023-03-19T15:52:47;11.60;99.90
22418;DHT22;11376;50.932;4.442;2023-03-19T15:55:15;11.70;99.90
22418;DHT22;11376;50.932;4.442;2023-03-19T15:57:41;11.60;99.90
22418;DHT22;11376;50.932;4.442;2023-03-19T16:00:08;11.50;99.90
22418;DHT22;11376;50.932;4.442;2023-03-19T16:02:41;11.50;99.90
22418;DHT22;11376;50.932;4.442;2023-03-19T16:05:22;11.40;99.90
22418;DHT22;11376;50.932;4.442;2023-03-19T16:07:53;11.30;99.90
22418;DHT22;11376;50.932;4.442;2023-03-19T16:10:33;11.40;99.90
22418;DHT22;11376;50.932;4.442;2023-03-19T16:12:59;11.20;99.90
22418;DHT22;11376;50.932;4.442;2023-03-19T16:15:41;11.10;99.90
22418;DHT22;11376;50.932;4.442;2023-03-19T16:20:55;11.20;99.90
22418;DHT22;11376;50.932;4.442;2023-03-19T16:23:28;11.10;99.90
22418;DHT22;11376;50.932;4.442;2023-03-19T16:25:55;10.90;99.90
22418;DHT22;11376;50.932;4.442;2023-03-19T16:28:21;11.00;99.90
22418;DHT22;11376;50.932;4.442;2023-03-19T16:30:50;11.10;99.90
22418;DHT22;11376;50.932;4.442;2023-03-19T16:33:16;11.00;99.90
22418;DHT22;11376;50.932;4.442;2023-03-19T16:35:44;11.00;99.90
22418;DHT22;11376;50.932;4.442;2023-03-19T16:38:22;10.90;99.90
22418;DHT22;11376;50.932;4.442;2023-03-19T16:43:36;11.10;99.90
22418;DHT22;11376;50.932;4.442;2023-03-19T16:46:08;11.10;99.90
22418;DHT22;11376;50.932;4.442;2023-03-19T16:48:37;11.20;99.90
22418;DHT22;11376;50.932;4.442;2023-03-19T16:51:03;11.30;99.90
22418;DHT22;11376;50.932;4.442;2023-03-19T16:53:30;11.20;99.90
22418;DHT22;11376;50.932;4.442;2023-03-19T16:55:57;11.00;99.90
22418;DHT22;11376;50.932;4.442;2023-03-19T16:58:30;10.90;99.90
22418;DHT22;11376;50.932;4.442;2023-03-19T17:00:57;10.70;99.90
22418;DHT22;11376;50.932;4.442;2023-03-19T17:03:23;10.40;99.90
22418;DHT22;11376;50.932;4.442;2023-03-19T17:05:50;10.30;99.90
22418;DHT22;11376;50.932;4.442;2023-03-19T17:08:16;10.50;99.90
22418;DHT22;11376;50.932;4.442;2023-03-19T17:10:45;10.50;99.90
22418;DHT22;11376;50.932;4.442;2023-03-19T17:13:17;10.50;99.90
22418;DHT22;11376;50.932;4.442;2023-03-19T17:15:44;10.30;99.90
22418;DHT22;11376;50.932;4.442;2023-03-19T17:18:32;10.20;99.90
22418;DHT22;11376;50.932;4.442;2023-03-19T17:21:10;10.20;99.90
22418;DHT22;11376;50.932;4.442;2023-03-19T17:23:36;10.10;99.90
22418;DHT22;11376;50.932;4.442;2023-03-19T17:26:12;10.10;99.90
22418;DHT22;11376;50.932;4.442;2023-03-19T17:28:39;10.10;99.90
22418;DHT22;11376;50.932;4.442;2023-03-19T17:31:07;10.00;99.90
22418;DHT22;11376;50.932;4.442;2023-03-19T17:33:35;10.00;99.90
22418;DHT22;11376;50.932;4.442;2023-03-19T17:36:02;9.90;99.90